createdAt,value
2022-10-20T00:00:18.474Z,9.80
2022-10-20T00:01:27.011Z,9.80
2022-10-20T00:02:30.427Z,9.80
2022-10-20T00:03:33.198Z,9.80
2022-10-20T00:04:36.600Z,9.80
2022-10-20T00:05:41.307Z,9.80
2022-10-20T00:06:44.815Z,9.80
2022-10-20T00:07:47.216Z,9.80
2022-10-20T00:08:51.332Z,9.80
2022-10-20T00:09:53.831Z,9.80
2022-10-20T00:10:59.054Z,9.80
2022-10-20T00:12:02.613Z,9.80
2022-10-20T00:13:04.908Z,9.80
2022-10-20T00:14:08.245Z,9.80
2022-10-20T00:15:11.250Z,9.80
2022-10-20T00:16:15.875Z,9.80
2022-10-20T00:17:18.481Z,9.80
2022-10-20T00:18:25.425Z,9.80
2022-10-20T00:19:28.173Z,9.70
2022-10-20T00:20:33.886Z,9.80
2022-10-20T00:21:36.387Z,9.70
2022-10-20T00:22:45.359Z,9.70
2022-10-20T00:23:50.643Z,9.70
2022-10-20T00:24:54.292Z,9.70
2022-10-20T00:26:07.399Z,9.70
2022-10-20T00:27:11.052Z,9.70
2022-10-20T00:28:13.560Z,9.70
2022-10-20T00:33:10.862Z,9.70
2022-10-20T00:34:13.198Z,9.70
2022-10-20T00:35:16.933Z,9.70
2022-10-20T00:36:22.492Z,9.70
2022-10-20T00:37:28.189Z,9.70
2022-10-20T00:38:30.781Z,9.60
2022-10-20T00:39:36.363Z,9.60
2022-10-20T00:40:38.746Z,9.60
2022-10-20T00:41:43.490Z,9.60
2022-10-20T00:42:46.612Z,9.60
2022-10-20T00:43:53.579Z,9.60
2022-10-20T00:44:59.704Z,9.60
2022-10-20T00:46:03.705Z,9.60
2022-10-20T00:47:06.313Z,9.60
2022-10-20T00:48:17.000Z,9.60
2022-10-20T00:49:24.967Z,9.50
2022-10-20T00:50:38.144Z,9.50
2022-10-20T00:51:47.908Z,9.50
2022-10-20T00:52:52.084Z,9.50
2022-10-20T00:54:04.626Z,9.50
2022-10-20T00:55:10.555Z,9.50
2022-10-20T00:56:21.083Z,9.50
2022-10-20T00:57:24.970Z,9.50
2022-10-20T00:58:29.108Z,9.50
2022-10-20T00:59:36.087Z,9.50
2022-10-20T01:00:40.998Z,9.50
2022-10-20T01:01:44.511Z,9.40
2022-10-20T01:02:48.232Z,9.40
2022-10-20T01:03:52.353Z,9.40
2022-10-20T01:04:55.849Z,9.40
2022-10-20T01:05:58.276Z,9.40
2022-10-20T01:07:01.914Z,9.40
2022-10-20T01:08:04.765Z,9.40
2022-10-20T01:09:09.437Z,9.30
2022-10-20T01:10:15.219Z,9.30
2022-10-20T01:11:27.313Z,9.30
2022-10-20T01:12:42.209Z,9.30
2022-10-20T01:14:03.637Z,9.30
2022-10-20T01:15:18.408Z,9.30
2022-10-20T01:16:29.413Z,9.30
2022-10-20T01:17:46.520Z,9.30
2022-10-20T01:19:02.018Z,9.30
2022-10-20T01:20:40.427Z,9.30
2022-10-20T01:22:19.343Z,9.20
2022-10-20T01:24:01.409Z,9.20
2022-10-20T01:25:30.838Z,9.20
2022-10-20T01:27:28.324Z,9.20
2022-10-20T01:28:37.544Z,9.20
2022-10-20T01:29:47.998Z,9.20
2022-10-20T01:30:59.334Z,9.20
2022-10-20T01:32:09.882Z,9.20
2022-10-20T01:33:23.375Z,9.20
2022-10-20T01:34:33.823Z,9.20
2022-10-20T01:35:49.183Z,9.20
2022-10-20T01:36:59.201Z,9.20
2022-10-20T01:38:13.179Z,9.10
2022-10-20T01:39:24.610Z,9.10
2022-10-20T01:40:31.302Z,9.10
2022-10-20T01:41:40.674Z,9.10
2022-10-20T01:42:47.221Z,9.10
2022-10-20T01:43:50.857Z,9.10
2022-10-20T01:44:59.395Z,9.10
2022-10-20T01:46:04.817Z,9.10
2022-10-20T01:47:10.692Z,9.10
2022-10-20T01:48:17.652Z,9.10
2022-10-20T01:49:20.378Z,9.10
2022-10-20T01:50:24.953Z,9.10
2022-10-20T01:51:27.406Z,9.10
2022-10-20T01:52:33.129Z,9.10
2022-10-20T01:53:36.334Z,9.10
2022-10-20T01:54:40.494Z,9.10
2022-10-20T01:55:43.458Z,9.10
2022-10-20T01:57:04.714Z,9.10
2022-10-20T01:58:35.863Z,9.10
2022-10-20T02:00:02.423Z,9.10
2022-10-20T02:01:20.112Z,9.10
2022-10-20T02:03:04.142Z,9.00
2022-10-20T02:04:09.328Z,9.00
2022-10-20T02:05:38.001Z,9.00
2022-10-20T02:06:53.200Z,9.00
2022-10-20T02:08:06.864Z,9.00
2022-10-20T02:09:16.761Z,9.00
2022-10-20T02:10:23.767Z,9.00
2022-10-20T02:11:39.687Z,9.00
2022-10-20T02:12:47.538Z,9.00
2022-10-20T02:13:55.596Z,9.00
2022-10-20T02:14:58.506Z,9.00
2022-10-20T02:16:08.920Z,9.00
2022-10-20T02:17:15.944Z,9.00
2022-10-20T02:18:22.913Z,9.00
2022-10-20T02:19:31.783Z,9.00
2022-10-20T02:20:37.705Z,9.00
2022-10-20T02:21:42.581Z,9.00
2022-10-20T02:22:47.022Z,9.00
2022-10-20T02:23:51.666Z,9.00
2022-10-20T02:24:55.407Z,9.00
2022-10-20T02:26:00.672Z,9.00
2022-10-20T02:27:14.137Z,9.00
2022-10-20T02:28:17.623Z,9.00
2022-10-20T02:29:28.961Z,9.00
2022-10-20T02:30:32.418Z,9.00
2022-10-20T02:31:35.817Z,9.00
2022-10-20T02:32:41.942Z,9.00
2022-10-20T02:33:48.109Z,9.00
2022-10-20T02:34:50.632Z,9.00
2022-10-20T02:36:00.034Z,9.00
2022-10-20T02:37:04.829Z,8.90
2022-10-20T02:38:08.384Z,9.00
2022-10-20T02:39:11.051Z,8.90
2022-10-20T02:40:15.392Z,8.90
2022-10-20T02:41:17.883Z,9.00
2022-10-20T02:42:23.477Z,8.90
2022-10-20T02:43:28.176Z,8.90
2022-10-20T02:44:33.103Z,8.90
2022-10-20T02:45:35.683Z,8.90
2022-10-20T02:46:39.709Z,9.00
2022-10-20T02:47:42.137Z,8.90
2022-10-20T02:48:47.952Z,9.00
2022-10-20T02:49:50.321Z,8.90
2022-10-20T02:50:53.702Z,8.90
2022-10-20T02:51:56.065Z,9.00
2022-10-20T02:53:00.314Z,9.00
2022-10-20T02:54:02.706Z,9.00
2022-10-20T02:55:07.105Z,8.90
2022-10-20T02:56:09.740Z,9.00
2022-10-20T02:57:13.225Z,9.00
2022-10-20T02:58:15.907Z,9.00
2022-10-20T02:59:19.297Z,9.00
2022-10-20T03:00:29.500Z,9.00
2022-10-20T03:01:32.935Z,9.00
2022-10-20T03:02:35.399Z,9.00
2022-10-20T03:03:38.874Z,9.00
2022-10-20T03:04:41.439Z,9.00
2022-10-20T03:05:44.938Z,9.00
2022-10-20T03:06:47.748Z,9.00
2022-10-20T03:07:51.032Z,9.00
2022-10-20T03:08:53.458Z,9.00
2022-10-20T03:09:56.846Z,9.00
2022-10-20T03:10:59.298Z,9.00
2022-10-20T03:12:04.286Z,9.00
2022-10-20T03:13:09.859Z,9.00
2022-10-20T03:14:13.664Z,9.00
2022-10-20T03:15:18.680Z,9.00
2022-10-20T03:16:23.601Z,9.00
2022-10-20T03:17:26.017Z,9.00
2022-10-20T03:18:29.643Z,9.10
2022-10-20T03:19:31.974Z,9.10
2022-10-20T03:20:35.958Z,9.10
2022-10-20T03:21:38.414Z,9.10
2022-10-20T03:22:44.094Z,9.10
2022-10-20T03:23:47.192Z,9.10
2022-10-20T03:24:50.764Z,9.10
2022-10-20T03:25:53.246Z,9.10
2022-10-20T03:26:56.691Z,9.10
2022-10-20T03:27:59.304Z,9.10
2022-10-20T03:29:02.676Z,9.10
2022-10-20T03:30:06.731Z,9.10
2022-10-20T03:31:10.906Z,9.20
2022-10-20T03:32:17.366Z,9.20
2022-10-20T03:33:20.707Z,9.20
2022-10-20T03:34:23.047Z,9.20
2022-10-20T03:35:26.393Z,9.20
2022-10-20T03:36:29.788Z,9.20
2022-10-20T03:37:32.280Z,9.20
2022-10-20T03:38:38.104Z,9.20
2022-10-20T03:39:41.249Z,9.20
2022-10-20T03:40:44.654Z,9.20
2022-10-20T03:41:47.407Z,9.30
2022-10-20T03:42:50.896Z,9.30
2022-10-20T03:43:53.374Z,9.30
2022-10-20T03:44:56.748Z,9.30
2022-10-20T03:46:03.561Z,9.30
2022-10-20T03:47:07.196Z,9.30
2022-10-20T03:48:12.253Z,9.30
2022-10-20T03:49:16.180Z,9.30
2022-10-20T03:50:18.805Z,9.30
2022-10-20T03:51:22.432Z,9.40
2022-10-20T03:52:27.265Z,9.40
2022-10-20T03:53:31.278Z,9.40
2022-10-20T03:54:35.765Z,9.40
2022-10-20T03:55:39.417Z,9.40
2022-10-20T03:56:41.879Z,9.40
2022-10-20T03:57:45.691Z,9.40
2022-10-20T03:58:48.921Z,9.50
2022-10-20T03:59:52.365Z,9.50
2022-10-20T04:00:55.079Z,9.50
2022-10-20T04:01:58.835Z,9.50
2022-10-20T04:03:01.268Z,9.50
2022-10-20T04:04:05.964Z,9.50
2022-10-20T04:05:10.863Z,9.50
2022-10-20T04:06:16.805Z,9.50
2022-10-20T04:07:19.292Z,9.50
2022-10-20T04:08:25.159Z,9.60
2022-10-20T04:09:27.651Z,9.60
2022-10-20T04:10:31.504Z,9.60
2022-10-20T04:11:34.097Z,9.60
2022-10-20T04:12:38.065Z,9.60
2022-10-20T04:13:40.667Z,9.60
2022-10-20T04:14:44.263Z,9.60
2022-10-20T04:15:47.127Z,9.60
2022-10-20T04:16:50.559Z,9.60
2022-10-20T04:17:52.931Z,9.60
2022-10-20T04:18:56.777Z,9.70
2022-10-20T04:20:00.518Z,9.70
2022-10-20T04:21:06.923Z,9.70
2022-10-20T04:22:09.325Z,9.70
2022-10-20T04:23:13.007Z,9.70
2022-10-20T04:24:16.387Z,9.70
2022-10-20T04:25:23.019Z,9.70
2022-10-20T04:26:27.568Z,9.70
2022-10-20T04:27:31.856Z,9.70
2022-10-20T04:28:34.422Z,9.80
2022-10-20T04:29:37.967Z,9.80
2022-10-20T04:30:40.889Z,9.80
2022-10-20T04:31:48.320Z,9.80
2022-10-20T04:32:51.646Z,9.80
2022-10-20T04:33:55.008Z,9.80
2022-10-20T04:35:01.500Z,9.80
2022-10-20T04:36:09.315Z,9.80
2022-10-20T04:37:12.154Z,9.80
2022-10-20T04:38:15.440Z,9.90
2022-10-20T04:39:17.984Z,9.90
2022-10-20T04:40:21.437Z,9.90
2022-10-20T04:41:25.966Z,9.90
2022-10-20T04:42:29.356Z,9.90
2022-10-20T04:43:33.783Z,10.00
2022-10-20T04:44:37.195Z,10.00
2022-10-20T04:45:41.900Z,10.00
2022-10-20T04:46:45.463Z,10.00
2022-10-20T04:47:48.428Z,10.10
2022-10-20T04:48:51.911Z,10.10
2022-10-20T04:49:54.262Z,10.10
2022-10-20T04:51:08.091Z,10.10
2022-10-20T04:52:10.564Z,10.10
2022-10-20T04:53:14.051Z,10.10
2022-10-20T04:54:16.488Z,10.10
2022-10-20T04:55:20.322Z,10.20
2022-10-20T04:56:23.180Z,10.20
2022-10-20T04:57:27.213Z,10.20
2022-10-20T04:58:30.031Z,10.20
2022-10-20T04:59:41.026Z,10.20
2022-10-20T05:00:43.401Z,10.20
2022-10-20T05:01:49.456Z,10.20
2022-10-20T05:02:51.933Z,10.20
2022-10-20T05:03:55.714Z,10.30
2022-10-20T05:05:00.630Z,10.30
2022-10-20T05:06:13.856Z,10.30
2022-10-20T05:07:16.870Z,10.30
2022-10-20T05:08:20.430Z,10.30
2022-10-20T05:09:22.838Z,10.30
2022-10-20T05:10:26.333Z,10.30
2022-10-20T05:11:30.596Z,10.30
2022-10-20T05:12:34.264Z,10.30
2022-10-20T05:13:37.553Z,10.30
2022-10-20T05:14:41.004Z,10.30
2022-10-20T05:15:51.621Z,10.30
2022-10-20T05:16:55.177Z,10.30
2022-10-20T05:17:58.391Z,10.30
2022-10-20T05:19:02.217Z,10.30
2022-10-20T05:20:06.290Z,10.30
2022-10-20T05:21:15.142Z,10.30
2022-10-20T05:22:17.711Z,10.30
2022-10-20T05:23:21.257Z,10.30
2022-10-20T05:24:29.188Z,10.30
2022-10-20T05:25:36.457Z,10.30
2022-10-20T05:26:40.789Z,10.30
2022-10-20T05:27:43.338Z,10.30
2022-10-20T05:28:49.311Z,10.30
2022-10-20T05:29:51.801Z,10.30
2022-10-20T05:30:57.794Z,10.30
2022-10-20T05:32:04.944Z,10.30
2022-10-20T05:33:07.280Z,10.30
2022-10-20T05:34:12.029Z,10.30
2022-10-20T05:35:14.498Z,10.30
2022-10-20T05:36:22.204Z,10.30
2022-10-20T05:37:27.232Z,10.30
2022-10-20T05:38:31.228Z,10.30
2022-10-20T05:39:34.779Z,10.30
2022-10-20T05:40:37.282Z,10.30
2022-10-20T05:41:43.219Z,10.30
2022-10-20T05:42:46.098Z,10.30
2022-10-20T05:43:50.884Z,10.30
2022-10-20T05:44:54.544Z,10.30
2022-10-20T05:45:57.094Z,10.30
2022-10-20T05:47:00.863Z,10.30
2022-10-20T05:48:03.451Z,10.30
2022-10-20T05:49:07.029Z,10.30
2022-10-20T05:50:10.706Z,10.30
2022-10-20T05:51:19.297Z,10.30
2022-10-20T05:52:21.825Z,10.30
2022-10-20T05:53:25.287Z,10.30
2022-10-20T05:54:27.937Z,10.30
2022-10-20T05:55:31.633Z,10.30
2022-10-20T05:56:34.491Z,10.30
2022-10-20T05:57:38.149Z,10.30
2022-10-20T05:58:41.411Z,10.30
2022-10-20T05:59:45.015Z,10.30
2022-10-20T06:00:52.735Z,10.30
2022-10-20T06:01:56.227Z,10.30
2022-10-20T06:02:58.650Z,10.30
2022-10-20T06:04:02.303Z,10.30
2022-10-20T06:05:05.302Z,10.30
2022-10-20T06:06:11.192Z,10.30
2022-10-20T06:07:18.702Z,10.30
2022-10-20T06:08:21.232Z,10.30
2022-10-20T06:09:25.694Z,10.30
2022-10-20T06:10:29.249Z,10.30
2022-10-20T06:11:38.326Z,10.30
2022-10-20T06:12:45.889Z,10.30
2022-10-20T06:13:52.847Z,10.30
2022-10-20T06:14:58.699Z,10.30
2022-10-20T06:16:07.681Z,10.30
2022-10-20T06:17:11.331Z,10.30
2022-10-20T06:18:14.397Z,10.30
2022-10-20T06:19:18.586Z,10.30
2022-10-20T06:20:22.201Z,10.30
2022-10-20T06:21:28.477Z,10.30
2022-10-20T06:22:33.607Z,10.30
2022-10-20T06:23:39.751Z,10.30
2022-10-20T06:24:43.711Z,10.30
2022-10-20T06:25:46.475Z,10.30
2022-10-20T06:26:50.077Z,10.30
2022-10-20T06:27:53.704Z,10.30
2022-10-20T06:29:04.222Z,10.30
2022-10-20T06:30:10.595Z,10.30
2022-10-20T06:31:18.004Z,10.30
2022-10-20T06:32:21.564Z,10.30
2022-10-20T06:33:33.047Z,10.30
2022-10-20T06:34:39.868Z,10.30
2022-10-20T06:35:49.163Z,10.30
2022-10-20T06:36:59.353Z,10.30
2022-10-20T06:38:13.560Z,10.40
2022-10-20T06:39:20.558Z,10.40
2022-10-20T06:40:25.110Z,10.40
2022-10-20T06:41:29.623Z,10.40
2022-10-20T06:42:35.500Z,10.40
2022-10-20T06:43:38.909Z,10.40
2022-10-20T06:44:44.034Z,10.40
2022-10-20T06:45:55.895Z,10.40
2022-10-20T06:46:59.477Z,10.40
2022-10-20T06:48:02.357Z,10.40
2022-10-20T06:49:09.608Z,10.40
2022-10-20T06:50:12.970Z,10.40
2022-10-20T06:51:22.133Z,10.40
2022-10-20T06:52:27.122Z,10.40
2022-10-20T06:53:34.788Z,10.40
2022-10-20T06:54:43.239Z,10.40
2022-10-20T06:55:57.336Z,10.40
2022-10-20T06:57:00.808Z,10.40
2022-10-20T06:58:03.772Z,10.40
2022-10-20T06:59:08.324Z,10.40
2022-10-20T07:00:12.692Z,10.50
2022-10-20T07:01:19.292Z,10.50
2022-10-20T07:02:23.229Z,10.50
2022-10-20T07:03:25.790Z,10.50
2022-10-20T07:04:31.685Z,10.50
2022-10-20T07:05:36.140Z,10.50
2022-10-20T07:06:43.054Z,10.50
2022-10-20T07:07:46.263Z,10.50
2022-10-20T07:08:53.702Z,10.50
2022-10-20T07:10:00.122Z,10.50
2022-10-20T07:11:08.097Z,10.60
2022-10-20T07:12:12.173Z,10.60
2022-10-20T07:13:14.703Z,10.60
2022-10-20T07:14:18.452Z,10.60
2022-10-20T07:15:23.327Z,10.60
2022-10-20T07:16:29.340Z,10.60
2022-10-20T07:17:34.428Z,10.60
2022-10-20T07:18:39.503Z,10.70
2022-10-20T07:19:46.976Z,10.70
2022-10-20T07:20:50.456Z,10.70
2022-10-20T07:21:54.367Z,10.70
2022-10-20T07:22:57.774Z,10.70
2022-10-20T07:24:10.455Z,10.70
2022-10-20T07:25:21.804Z,10.80
2022-10-20T07:26:28.524Z,10.80
2022-10-20T07:27:34.504Z,10.80
2022-10-20T07:28:38.053Z,10.80
2022-10-20T07:29:41.750Z,10.80
2022-10-20T07:30:44.537Z,10.80
2022-10-20T07:31:50.267Z,10.90
2022-10-20T07:32:52.635Z,10.90
2022-10-20T07:34:06.801Z,10.90
2022-10-20T07:35:17.939Z,10.90
2022-10-20T07:36:24.208Z,10.90
2022-10-20T07:37:27.788Z,11.00
2022-10-20T07:38:30.977Z,11.00
2022-10-20T07:39:35.704Z,11.00
2022-10-20T07:40:40.677Z,11.00
2022-10-20T07:41:47.531Z,11.00
2022-10-20T07:42:50.293Z,11.00
2022-10-20T07:43:58.073Z,11.10
2022-10-20T07:45:05.115Z,11.10
2022-10-20T07:46:14.595Z,11.10
2022-10-20T07:47:18.153Z,11.10
2022-10-20T07:48:20.743Z,11.10
2022-10-20T07:50:50.190Z,11.10
2022-10-20T07:51:52.774Z,11.20
2022-10-20T07:52:56.317Z,11.20
2022-10-20T07:54:01.942Z,11.20
2022-10-20T07:55:23.871Z,11.20
2022-10-20T07:56:39.615Z,11.30
2022-10-20T07:57:43.961Z,11.30
2022-10-20T07:58:47.316Z,11.30
2022-10-20T07:59:51.193Z,11.30
2022-10-20T08:00:56.542Z,11.30
2022-10-20T08:02:01.011Z,11.40
2022-10-20T08:03:05.170Z,11.40
2022-10-20T08:04:11.056Z,11.40
2022-10-20T08:05:15.403Z,11.40
2022-10-20T08:06:19.440Z,11.40
2022-10-20T08:07:23.498Z,11.40
2022-10-20T08:08:27.141Z,11.40
2022-10-20T08:09:33.789Z,11.50
2022-10-20T08:10:40.082Z,11.50
2022-10-20T08:11:43.639Z,11.50
2022-10-20T08:12:46.562Z,11.50
2022-10-20T08:13:50.489Z,11.50
2022-10-20T08:14:59.595Z,11.50
2022-10-20T08:16:12.185Z,11.60
2022-10-20T08:17:17.242Z,11.60
2022-10-20T08:18:30.367Z,11.60
2022-10-20T08:19:37.435Z,11.60
2022-10-20T08:20:40.599Z,11.70
2022-10-20T08:21:44.468Z,11.70
2022-10-20T08:22:50.883Z,11.70
2022-10-20T08:23:56.676Z,11.70
2022-10-20T08:25:00.329Z,11.80
2022-10-20T08:26:07.883Z,11.80
2022-10-20T08:27:14.424Z,11.80
2022-10-20T08:28:22.187Z,11.80
2022-10-20T08:29:29.241Z,11.90
2022-10-20T08:30:35.714Z,11.90
2022-10-20T08:31:40.817Z,11.90
2022-10-20T08:32:45.738Z,11.90
2022-10-20T08:33:53.317Z,11.90
2022-10-20T08:34:56.001Z,11.90
2022-10-20T08:36:04.135Z,12.00
2022-10-20T08:37:06.777Z,12.00
2022-10-20T08:38:10.570Z,12.00
2022-10-20T08:39:13.629Z,12.00
2022-10-20T08:40:21.567Z,12.00
2022-10-20T08:41:43.416Z,12.00
2022-10-20T08:42:53.569Z,12.00
2022-10-20T08:43:59.603Z,12.00
2022-10-20T08:45:08.452Z,12.00
2022-10-20T08:47:37.636Z,12.10
2022-10-20T08:48:42.700Z,12.10
2022-10-20T08:49:47.792Z,12.10
2022-10-20T08:50:55.114Z,12.10
2022-10-20T08:52:02.812Z,12.10
2022-10-20T08:53:06.904Z,12.20
2022-10-20T08:54:16.127Z,12.20
2022-10-20T08:55:27.408Z,12.20
2022-10-20T08:56:35.756Z,12.20
2022-10-20T08:57:40.136Z,12.30
2022-10-20T08:58:46.508Z,12.30
2022-10-20T08:59:58.431Z,12.30
2022-10-20T09:01:07.050Z,12.30
2022-10-20T09:02:17.201Z,12.40
2022-10-20T09:03:24.204Z,12.40
2022-10-20T09:04:35.332Z,12.40
2022-10-20T09:05:45.745Z,12.50
2022-10-20T09:06:58.281Z,12.50
2022-10-20T09:08:03.106Z,12.50
2022-10-20T09:09:06.764Z,12.50
2022-10-20T09:10:27.470Z,12.50
2022-10-20T09:11:40.229Z,12.60
2022-10-20T09:12:47.618Z,12.60
2022-10-20T09:13:51.724Z,12.60
2022-10-20T09:14:54.430Z,12.60
2022-10-20T09:16:03.830Z,12.60
2022-10-20T09:17:14.085Z,12.60
2022-10-20T09:18:19.138Z,12.60
2022-10-20T09:19:24.821Z,12.60
2022-10-20T09:20:33.372Z,12.60
2022-10-20T09:21:39.770Z,12.60
2022-10-20T09:22:44.635Z,12.60
2022-10-20T09:23:53.210Z,12.60
2022-10-20T09:24:58.641Z,12.60
2022-10-20T09:26:02.110Z,12.60
2022-10-20T09:27:26.208Z,12.60
2022-10-20T09:28:38.479Z,12.70
2022-10-20T09:29:51.833Z,12.70
2022-10-20T09:30:56.810Z,12.70
2022-10-20T09:32:06.899Z,12.70
2022-10-20T09:33:28.786Z,12.70
2022-10-20T09:34:36.735Z,12.70
2022-10-20T09:35:42.374Z,12.70
2022-10-20T09:36:45.223Z,12.70
2022-10-20T09:38:05.599Z,12.80
2022-10-20T09:39:21.583Z,12.70
2022-10-20T09:40:27.522Z,12.80
2022-10-20T09:41:32.694Z,12.80
2022-10-20T09:42:41.950Z,12.80
2022-10-20T09:43:58.110Z,12.90
2022-10-20T09:45:06.400Z,12.90
2022-10-20T09:46:12.793Z,12.90
2022-10-20T09:47:18.136Z,12.90
2022-10-20T09:48:29.140Z,12.90
2022-10-20T09:49:38.117Z,13.00
2022-10-20T09:50:40.918Z,13.00
2022-10-20T09:51:49.182Z,13.00
2022-10-20T09:52:52.832Z,13.00
2022-10-20T09:54:02.295Z,13.10
2022-10-20T09:55:22.109Z,13.10
2022-10-20T09:56:33.399Z,13.10
2022-10-20T09:57:38.330Z,13.20
2022-10-20T09:58:42.861Z,13.20
2022-10-20T09:59:49.981Z,13.30
2022-10-20T10:01:01.748Z,13.30
2022-10-20T10:02:33.480Z,13.30
2022-10-20T10:03:43.368Z,13.40
2022-10-20T10:04:50.188Z,13.40
2022-10-20T10:05:55.607Z,13.40
2022-10-20T10:07:01.888Z,13.40
2022-10-20T10:08:04.946Z,13.50
2022-10-20T10:09:29.071Z,13.50
2022-10-20T10:10:33.966Z,13.50
2022-10-20T10:11:38.686Z,13.50
2022-10-20T10:12:52.642Z,13.50
2022-10-20T10:13:56.420Z,13.50
2022-10-20T10:15:01.562Z,13.50
2022-10-20T10:16:09.140Z,13.60
2022-10-20T10:17:12.982Z,13.60
2022-10-20T10:18:23.129Z,13.60
2022-10-20T10:19:31.743Z,13.60
2022-10-20T10:20:39.102Z,13.60
2022-10-20T10:21:48.533Z,13.60
2022-10-20T10:22:51.449Z,13.60
2022-10-20T10:24:00.250Z,13.60
2022-10-20T10:25:05.332Z,13.60
2022-10-20T10:26:49.435Z,13.70
2022-10-20T10:28:07.400Z,13.70
2022-10-20T10:29:25.765Z,13.70
2022-10-20T10:30:32.582Z,13.70
2022-10-20T10:31:36.058Z,13.70
2022-10-20T10:32:45.565Z,13.70
2022-10-20T10:33:50.886Z,13.70
2022-10-20T10:35:13.976Z,13.70
2022-10-20T10:36:31.962Z,13.70
2022-10-20T10:37:38.432Z,13.70
2022-10-20T10:38:41.427Z,13.70
2022-10-20T10:39:46.019Z,13.70
2022-10-20T10:41:03.943Z,13.70
2022-10-20T10:42:47.082Z,13.70
2022-10-20T10:44:04.216Z,13.70
2022-10-20T10:45:19.789Z,13.70
2022-10-20T10:46:28.168Z,13.70
2022-10-20T10:48:10.758Z,13.70
2022-10-20T10:49:51.662Z,13.70
2022-10-20T10:50:59.484Z,13.80
2022-10-20T10:52:26.018Z,13.80
2022-10-20T10:53:52.019Z,13.80
2022-10-20T10:55:07.141Z,13.80
2022-10-20T10:56:21.874Z,13.80
2022-10-20T10:57:32.851Z,13.80
2022-10-20T10:58:47.363Z,13.80
2022-10-20T10:59:54.407Z,13.80
2022-10-20T11:01:10.864Z,13.80
2022-10-20T11:03:01.127Z,13.80
2022-10-20T11:04:48.741Z,13.80
2022-10-20T11:06:13.553Z,13.80
2022-10-20T11:07:33.580Z,13.80
2022-10-20T11:09:07.743Z,13.80
2022-10-20T11:10:22.369Z,13.80
2022-10-20T11:11:42.775Z,13.80
2022-10-20T11:13:09.173Z,13.80
2022-10-20T11:14:33.357Z,13.80
2022-10-20T11:15:59.615Z,13.80
2022-10-20T11:17:40.028Z,13.80
2022-10-20T11:19:10.538Z,13.80
2022-10-20T11:20:28.746Z,13.80
2022-10-20T11:21:43.070Z,13.80
2022-10-20T11:23:24.203Z,13.90
2022-10-20T11:24:47.069Z,13.80
2022-10-20T11:25:57.861Z,13.90
2022-10-20T11:27:11.194Z,13.90
2022-10-20T11:28:30.814Z,13.80
2022-10-20T11:29:43.196Z,13.90
2022-10-20T11:30:47.812Z,13.90
2022-10-20T11:31:57.324Z,13.90
2022-10-20T11:33:09.205Z,13.90
2022-10-20T11:34:18.721Z,13.90
2022-10-20T11:35:35.950Z,13.90
2022-10-20T11:36:46.281Z,13.90
2022-10-20T11:37:57.919Z,13.90
2022-10-20T11:39:04.070Z,13.90
2022-10-20T11:40:24.728Z,13.90
2022-10-20T11:41:39.594Z,13.90
2022-10-20T11:42:50.367Z,13.90
2022-10-20T11:44:00.105Z,13.90
2022-10-20T11:45:27.866Z,13.90
2022-10-20T11:46:40.966Z,13.90
2022-10-20T11:47:46.470Z,13.90
2022-10-20T11:48:54.815Z,13.90
2022-10-20T11:50:00.882Z,13.90
2022-10-20T11:51:40.495Z,13.90
2022-10-20T11:53:07.677Z,13.80
2022-10-20T11:54:36.331Z,13.80
2022-10-20T11:56:27.684Z,13.80
2022-10-20T11:57:51.430Z,13.80
2022-10-20T11:59:30.906Z,13.80
2022-10-20T12:01:01.604Z,13.80
2022-10-20T12:03:01.961Z,13.90
2022-10-20T12:04:44.369Z,13.90
2022-10-20T12:06:25.186Z,13.80
2022-10-20T12:08:17.411Z,13.90
2022-10-20T12:09:53.982Z,13.90
2022-10-20T12:11:06.185Z,13.90
2022-10-20T12:12:16.284Z,13.90
2022-10-20T12:13:41.185Z,13.90
2022-10-20T12:14:50.820Z,13.90
2022-10-20T12:15:55.264Z,13.90
2022-10-20T12:17:29.211Z,13.90
2022-10-20T12:18:41.042Z,14.00
2022-10-20T12:19:44.449Z,14.00
2022-10-20T12:20:55.126Z,14.00
2022-10-20T12:22:00.528Z,14.10
2022-10-20T12:23:04.515Z,14.10
2022-10-20T12:24:37.669Z,14.10
2022-10-20T12:25:41.860Z,14.10
2022-10-20T12:27:19.208Z,14.10
2022-10-20T12:28:45.579Z,14.10
2022-10-20T12:30:06.210Z,14.10
2022-10-20T12:31:11.529Z,14.10
2022-10-20T12:33:01.092Z,14.10
2022-10-20T12:34:24.827Z,14.10
2022-10-20T12:35:59.326Z,14.10
2022-10-20T12:37:12.758Z,14.10
2022-10-20T12:38:19.081Z,14.10
2022-10-20T12:39:30.656Z,14.10
2022-10-20T12:40:45.058Z,14.00
2022-10-20T12:42:05.199Z,14.00
2022-10-20T12:43:53.668Z,14.00
2022-10-20T12:45:03.056Z,14.00
2022-10-20T12:46:10.517Z,14.00
2022-10-20T12:47:23.284Z,14.00
2022-10-20T12:48:30.674Z,14.00
2022-10-20T12:49:38.143Z,14.10
2022-10-20T12:50:45.389Z,14.10
2022-10-20T12:51:56.145Z,14.10
2022-10-20T12:53:14.202Z,14.10
2022-10-20T12:54:25.592Z,14.10
2022-10-20T12:55:41.904Z,14.10
2022-10-20T12:56:49.472Z,14.10
2022-10-20T12:58:12.287Z,14.10
2022-10-20T12:59:40.606Z,14.10
2022-10-20T13:01:09.053Z,14.20
2022-10-20T13:02:34.922Z,14.20
2022-10-20T13:03:48.611Z,14.20
2022-10-20T13:04:55.021Z,14.20
2022-10-20T13:06:02.157Z,14.30
2022-10-20T13:07:04.755Z,14.30
2022-10-20T13:08:35.475Z,14.40
2022-10-20T13:10:01.824Z,14.40
2022-10-20T13:11:54.196Z,14.40
2022-10-20T13:14:01.451Z,14.40
2022-10-20T13:15:14.200Z,14.40
2022-10-20T13:16:22.123Z,14.40
2022-10-20T13:17:52.649Z,14.40
2022-10-20T13:18:56.820Z,14.50
2022-10-20T13:20:20.811Z,14.50
2022-10-20T13:21:37.550Z,14.50
2022-10-20T13:22:47.794Z,14.50
2022-10-20T13:24:07.710Z,14.50
2022-10-20T13:25:36.620Z,14.50
2022-10-20T13:26:54.298Z,14.50
2022-10-20T13:28:08.248Z,14.50
2022-10-20T13:29:17.066Z,14.50
2022-10-20T13:30:24.031Z,14.50
2022-10-20T13:31:35.263Z,14.50
2022-10-20T13:33:10.903Z,14.50
2022-10-20T13:34:27.203Z,14.50
2022-10-20T13:35:38.886Z,14.50
2022-10-20T13:37:22.941Z,14.50
2022-10-20T13:38:37.141Z,14.60
2022-10-20T13:39:55.477Z,14.60
2022-10-20T13:41:12.517Z,14.60
2022-10-20T13:42:38.031Z,14.60
2022-10-20T13:43:57.465Z,14.60
2022-10-20T13:45:13.058Z,14.60
2022-10-20T13:46:46.389Z,14.60
2022-10-20T13:47:59.314Z,14.60
2022-10-20T13:49:26.854Z,14.60
2022-10-20T13:50:39.885Z,14.60
2022-10-20T13:51:48.616Z,14.70
2022-10-20T13:52:57.082Z,14.70
2022-10-20T13:54:06.057Z,14.70
2022-10-20T13:55:18.107Z,14.70
2022-10-20T13:56:35.416Z,14.80
2022-10-20T13:57:55.258Z,14.80
2022-10-20T13:59:05.986Z,14.80
2022-10-20T14:00:24.520Z,14.80
2022-10-20T14:01:33.911Z,14.90
2022-10-20T14:02:38.424Z,14.90
2022-10-20T14:03:45.579Z,15.00
2022-10-20T14:05:05.935Z,15.00
2022-10-20T14:06:36.276Z,15.10
2022-10-20T14:07:45.496Z,15.20
2022-10-20T14:08:47.972Z,15.20
2022-10-20T14:09:59.194Z,15.40
2022-10-20T14:11:08.514Z,15.50
2022-10-20T14:12:20.467Z,15.60
2022-10-20T14:13:31.592Z,15.80
2022-10-20T14:14:35.062Z,16.00
2022-10-20T14:15:39.067Z,16.20
2022-10-20T14:16:56.209Z,16.40
2022-10-20T14:18:03.967Z,16.50
2022-10-20T14:19:11.746Z,16.70
2022-10-20T14:20:24.677Z,16.80
2022-10-20T14:21:45.380Z,17.00
2022-10-20T14:22:50.721Z,17.00
2022-10-20T14:23:56.903Z,17.10
2022-10-20T14:25:05.318Z,17.20
2022-10-20T14:26:15.166Z,17.30
2022-10-20T14:27:21.211Z,17.40
2022-10-20T14:28:27.018Z,17.40
2022-10-20T14:29:33.980Z,17.40
2022-10-20T14:30:41.122Z,17.50
2022-10-20T14:31:45.607Z,17.50
2022-10-20T14:32:52.597Z,17.60
2022-10-20T14:33:56.020Z,17.60
2022-10-20T14:35:05.360Z,17.70
2022-10-20T14:36:22.439Z,17.70
2022-10-20T14:37:36.351Z,17.70
2022-10-20T14:38:49.017Z,17.70
2022-10-20T14:39:54.480Z,17.70
2022-10-20T14:41:00.227Z,17.70
2022-10-20T14:42:14.716Z,17.70
2022-10-20T14:43:22.656Z,17.70
2022-10-20T14:44:31.411Z,17.60
2022-10-20T14:45:35.438Z,17.50
2022-10-20T14:46:40.725Z,17.40
2022-10-20T14:47:44.133Z,17.40
2022-10-20T14:48:51.623Z,17.40
2022-10-20T14:49:55.649Z,17.30
2022-10-20T14:50:59.099Z,17.30
2022-10-20T14:52:07.161Z,17.40
2022-10-20T14:53:20.450Z,17.40
2022-10-20T14:54:39.523Z,17.40
2022-10-20T14:55:42.151Z,17.50
2022-10-20T14:56:48.193Z,17.50
2022-10-20T14:57:51.596Z,17.60
2022-10-20T14:59:00.985Z,17.60
2022-10-20T15:00:32.879Z,17.70
2022-10-20T15:01:36.312Z,17.70
2022-10-20T15:02:46.298Z,17.70
2022-10-20T15:04:16.624Z,17.70
2022-10-20T15:05:32.099Z,17.70
2022-10-20T15:06:37.963Z,17.60
2022-10-20T15:07:43.318Z,17.60
2022-10-20T15:08:58.046Z,17.50
2022-10-20T15:10:10.211Z,17.40